sensor_id;sensor_type;location;lat;lon;timestamp;P1;durP1;ratioP1;P2;durP2;ratioP2
76610;SDS011;65503;48.534;9.062;2023-12-20T00:00:36;6.68;;;2.60;;
76610;SDS011;65503;48.534;9.062;2023-12-20T00:03:04;6.00;;;2.83;;
76610;SDS011;65503;48.534;9.062;2023-12-20T00:05:31;6.97;;;2.85;;
76610;SDS011;65503;48.534;9.062;2023-12-20T00:07:58;5.03;;;2.28;;
76610;SDS011;65503;48.534;9.062;2023-12-20T00:10:25;5.53;;;2.30;;
76610;SDS011;65503;48.534;9.062;2023-12-20T00:12:51;3.80;;;1.75;;
76610;SDS011;65503;48.534;9.062;2023-12-20T00:15:18;4.07;;;1.75;;
76610;SDS011;65503;48.534;9.062;2023-12-20T00:17:44;3.55;;;1.67;;
76610;SDS011;65503;48.534;9.062;2023-12-20T00:20:11;3.67;;;1.60;;
76610;SDS011;65503;48.534;9.062;2023-12-20T00:22:38;3.40;;;1.48;;
76610;SDS011;65503;48.534;9.062;2023-12-20T00:25:04;3.33;;;1.33;;
76610;SDS011;65503;48.534;9.062;2023-12-20T00:27:31;3.13;;;1.48;;
76610;SDS011;65503;48.534;9.062;2023-12-20T00:29:57;2.38;;;1.35;;
76610;SDS011;65503;48.534;9.062;2023-12-20T00:32:24;1.90;;;1.20;;
76610;SDS011;65503;48.534;9.062;2023-12-20T00:34:50;2.90;;;1.17;;
76610;SDS011;65503;48.534;9.062;2023-12-20T00:37:17;4.40;;;1.30;;
76610;SDS011;65503;48.534;9.062;2023-12-20T00:39:44;1.50;;;1.05;;
76610;SDS011;65503;48.534;9.062;2023-12-20T00:42:10;3.83;;;1.30;;
76610;SDS011;65503;48.534;9.062;2023-12-20T00:44:37;1.70;;;0.95;;
76610;SDS011;65503;48.534;9.062;2023-12-20T00:47:03;1.50;;;1.02;;
76610;SDS011;65503;48.534;9.062;2023-12-20T00:49:30;2.33;;;1.25;;
76610;SDS011;65503;48.534;9.062;2023-12-20T00:51:56;1.55;;;1.10;;
76610;SDS011;65503;48.534;9.062;2023-12-20T00:54:23;2.80;;;1.20;;
76610;SDS011;65503;48.534;9.062;2023-12-20T00:56:49;3.72;;;1.23;;
76610;SDS011;65503;48.534;9.062;2023-12-20T00:59:16;2.47;;;1.30;;
76610;SDS011;65503;48.534;9.062;2023-12-20T01:01:43;4.32;;;1.17;;
76610;SDS011;65503;48.534;9.062;2023-12-20T01:04:10;4.20;;;1.40;;
76610;SDS011;65503;48.534;9.062;2023-12-20T01:06:36;1.85;;;1.05;;
76610;SDS011;65503;48.534;9.062;2023-12-20T01:09:03;2.85;;;1.33;;
76610;SDS011;65503;48.534;9.062;2023-12-20T01:11:29;2.72;;;1.15;;
76610;SDS011;65503;48.534;9.062;2023-12-20T01:13:56;2.70;;;1.20;;
76610;SDS011;65503;48.534;9.062;2023-12-20T01:16:22;2.20;;;1.10;;
76610;SDS011;65503;48.534;9.062;2023-12-20T01:18:49;1.88;;;0.98;;
76610;SDS011;65503;48.534;9.062;2023-12-20T01:21:16;1.17;;;0.93;;
76610;SDS011;65503;48.534;9.062;2023-12-20T01:23:42;1.40;;;0.80;;
76610;SDS011;65503;48.534;9.062;2023-12-20T01:26:09;2.85;;;1.10;;
76610;SDS011;65503;48.534;9.062;2023-12-20T01:28:35;2.17;;;1.17;;
76610;SDS011;65503;48.534;9.062;2023-12-20T01:31:02;2.08;;;0.90;;
76610;SDS011;65503;48.534;9.062;2023-12-20T01:33:28;1.88;;;1.00;;
76610;SDS011;65503;48.534;9.062;2023-12-20T01:35:55;2.33;;;1.20;;
76610;SDS011;65503;48.534;9.062;2023-12-20T01:38:21;1.25;;;0.93;;
76610;SDS011;65503;48.534;9.062;2023-12-20T01:40:48;2.17;;;1.00;;
76610;SDS011;65503;48.534;9.062;2023-12-20T01:43:14;2.58;;;1.23;;
76610;SDS011;65503;48.534;9.062;2023-12-20T01:45:41;1.95;;;1.20;;
76610;SDS011;65503;48.534;9.062;2023-12-20T01:48:08;2.30;;;1.25;;
76610;SDS011;65503;48.534;9.062;2023-12-20T01:50:35;1.92;;;1.20;;
76610;SDS011;65503;48.534;9.062;2023-12-20T01:53:03;2.58;;;1.20;;
76610;SDS011;65503;48.534;9.062;2023-12-20T01:55:34;4.40;;;1.35;;
76610;SDS011;65503;48.534;9.062;2023-12-20T01:58:05;2.78;;;1.30;;
76610;SDS011;65503;48.534;9.062;2023-12-20T02:03:03;2.55;;;1.30;;
76610;SDS011;65503;48.534;9.062;2023-12-20T02:05:30;2.42;;;1.20;;
76610;SDS011;65503;48.534;9.062;2023-12-20T02:07:57;2.47;;;1.40;;
76610;SDS011;65503;48.534;9.062;2023-12-20T02:10:24;4.10;;;1.50;;
76610;SDS011;65503;48.534;9.062;2023-12-20T02:12:51;3.13;;;1.40;;
76610;SDS011;65503;48.534;9.062;2023-12-20T02:15:18;3.42;;;1.42;;
76610;SDS011;65503;48.534;9.062;2023-12-20T02:17:45;3.17;;;1.52;;
76610;SDS011;65503;48.534;9.062;2023-12-20T02:20:13;5.10;;;1.55;;
76610;SDS011;65503;48.534;9.062;2023-12-20T02:22:40;4.15;;;1.42;;
76610;SDS011;65503;48.534;9.062;2023-12-20T02:25:07;3.08;;;1.48;;
76610;SDS011;65503;48.534;9.062;2023-12-20T02:27:34;3.92;;;1.63;;
76610;SDS011;65503;48.534;9.062;2023-12-20T02:30:01;5.15;;;1.65;;
76610;SDS011;65503;48.534;9.062;2023-12-20T02:32:27;4.47;;;1.67;;
76610;SDS011;65503;48.534;9.062;2023-12-20T02:34:55;3.75;;;1.50;;
76610;SDS011;65503;48.534;9.062;2023-12-20T02:37:22;3.08;;;1.48;;
76610;SDS011;65503;48.534;9.062;2023-12-20T02:39:49;4.05;;;1.50;;
76610;SDS011;65503;48.534;9.062;2023-12-20T02:42:15;3.08;;;1.52;;
76610;SDS011;65503;48.534;9.062;2023-12-20T02:44:42;3.45;;;1.60;;
76610;SDS011;65503;48.534;9.062;2023-12-20T02:47:08;3.03;;;1.52;;
76610;SDS011;65503;48.534;9.062;2023-12-20T02:49:35;4.05;;;1.42;;
76610;SDS011;65503;48.534;9.062;2023-12-20T02:52:02;2.90;;;1.55;;
76610;SDS011;65503;48.534;9.062;2023-12-20T02:54:28;2.08;;;1.30;;
76610;SDS011;65503;48.534;9.062;2023-12-20T02:56:55;3.45;;;1.38;;
76610;SDS011;65503;48.534;9.062;2023-12-20T02:59:21;3.20;;;1.50;;
76610;SDS011;65503;48.534;9.062;2023-12-20T03:01:48;2.28;;;1.33;;
76610;SDS011;65503;48.534;9.062;2023-12-20T03:04:14;3.15;;;1.48;;
76610;SDS011;65503;48.534;9.062;2023-12-20T03:06:41;4.03;;;1.70;;
76610;SDS011;65503;48.534;9.062;2023-12-20T03:09:07;2.17;;;1.27;;
76610;SDS011;65503;48.534;9.062;2023-12-20T03:11:34;2.88;;;1.30;;
76610;SDS011;65503;48.534;9.062;2023-12-20T03:14:00;3.78;;;1.55;;
76610;SDS011;65503;48.534;9.062;2023-12-20T03:16:27;5.63;;;1.60;;
76610;SDS011;65503;48.534;9.062;2023-12-20T03:18:53;2.70;;;1.33;;
76610;SDS011;65503;48.534;9.062;2023-12-20T03:21:20;2.90;;;1.35;;
76610;SDS011;65503;48.534;9.062;2023-12-20T03:23:46;2.53;;;1.38;;
76610;SDS011;65503;48.534;9.062;2023-12-20T03:26:13;2.10;;;1.23;;
76610;SDS011;65503;48.534;9.062;2023-12-20T03:28:40;2.38;;;1.30;;
76610;SDS011;65503;48.534;9.062;2023-12-20T03:31:06;3.85;;;1.30;;
76610;SDS011;65503;48.534;9.062;2023-12-20T03:33:33;2.55;;;1.20;;
76610;SDS011;65503;48.534;9.062;2023-12-20T03:36:00;2.03;;;1.23;;
76610;SDS011;65503;48.534;9.062;2023-12-20T03:38:26;1.00;;;0.90;;
76610;SDS011;65503;48.534;9.062;2023-12-20T03:40:53;3.75;;;1.20;;
76610;SDS011;65503;48.534;9.062;2023-12-20T03:43:19;3.65;;;1.10;;
76610;SDS011;65503;48.534;9.062;2023-12-20T03:45:46;1.40;;;0.90;;
76610;SDS011;65503;48.534;9.062;2023-12-20T03:48:12;1.65;;;0.65;;
76610;SDS011;65503;48.534;9.062;2023-12-20T03:50:39;0.52;;;0.50;;
76610;SDS011;65503;48.534;9.062;2023-12-20T03:53:05;0.80;;;0.68;;
76610;SDS011;65503;48.534;9.062;2023-12-20T03:55:32;0.52;;;0.45;;
76610;SDS011;65503;48.534;9.062;2023-12-20T03:57:58;1.05;;;0.70;;
76610;SDS011;65503;48.534;9.062;2023-12-20T04:00:25;0.50;;;0.50;;
76610;SDS011;65503;48.534;9.062;2023-12-20T04:02:51;0.75;;;0.70;;
76610;SDS011;65503;48.534;9.062;2023-12-20T04:05:18;1.55;;;0.50;;
76610;SDS011;65503;48.534;9.062;2023-12-20T04:07:44;0.40;;;0.40;;
76610;SDS011;65503;48.534;9.062;2023-12-20T04:10:11;1.95;;;0.63;;
76610;SDS011;65503;48.534;9.062;2023-12-20T04:12:38;0.47;;;0.47;;
76610;SDS011;65503;48.534;9.062;2023-12-20T04:15:06;0.90;;;0.52;;
76610;SDS011;65503;48.534;9.062;2023-12-20T04:17:35;1.40;;;0.70;;
76610;SDS011;65503;48.534;9.062;2023-12-20T04:20:02;0.52;;;0.40;;
76610;SDS011;65503;48.534;9.062;2023-12-20T04:22:29;1.35;;;0.45;;
76610;SDS011;65503;48.534;9.062;2023-12-20T04:24:56;1.33;;;0.60;;
76610;SDS011;65503;48.534;9.062;2023-12-20T04:27:22;0.90;;;0.50;;
76610;SDS011;65503;48.534;9.062;2023-12-20T04:29:49;3.78;;;0.60;;
76610;SDS011;65503;48.534;9.062;2023-12-20T04:32:15;0.77;;;0.35;;
76610;SDS011;65503;48.534;9.062;2023-12-20T04:34:42;0.68;;;0.50;;
76610;SDS011;65503;48.534;9.062;2023-12-20T04:37:08;0.77;;;0.45;;
76610;SDS011;65503;48.534;9.062;2023-12-20T04:39:35;1.02;;;0.43;;
76610;SDS011;65503;48.534;9.062;2023-12-20T04:42:01;0.73;;;0.50;;
76610;SDS011;65503;48.534;9.062;2023-12-20T04:44:28;1.02;;;0.60;;
76610;SDS011;65503;48.534;9.062;2023-12-20T04:46:54;1.63;;;0.80;;
76610;SDS011;65503;48.534;9.062;2023-12-20T04:49:22;0.75;;;0.50;;
76610;SDS011;65503;48.534;9.062;2023-12-20T04:51:49;0.60;;;0.60;;
76610;SDS011;65503;48.534;9.062;2023-12-20T04:54:16;1.00;;;0.75;;
76610;SDS011;65503;48.534;9.062;2023-12-20T04:56:42;1.00;;;0.60;;
76610;SDS011;65503;48.534;9.062;2023-12-20T04:59:09;1.75;;;0.70;;
76610;SDS011;65503;48.534;9.062;2023-12-20T05:01:35;0.68;;;0.63;;
76610;SDS011;65503;48.534;9.062;2023-12-20T05:04:02;1.05;;;0.55;;
76610;SDS011;65503;48.534;9.062;2023-12-20T05:06:28;0.77;;;0.63;;
76610;SDS011;65503;48.534;9.062;2023-12-20T05:08:55;0.50;;;0.50;;
76610;SDS011;65503;48.534;9.062;2023-12-20T05:11:21;0.52;;;0.52;;
76610;SDS011;65503;48.534;9.062;2023-12-20T05:13:48;0.85;;;0.63;;
76610;SDS011;65503;48.534;9.062;2023-12-20T05:18:45;4.10;;;0.98;;
76610;SDS011;65503;48.534;9.062;2023-12-20T05:21:11;1.23;;;0.60;;
76610;SDS011;65503;48.534;9.062;2023-12-20T05:23:38;1.27;;;0.55;;
76610;SDS011;65503;48.534;9.062;2023-12-20T05:26:05;1.55;;;0.60;;
76610;SDS011;65503;48.534;9.062;2023-12-20T05:28:31;0.50;;;0.45;;
76610;SDS011;65503;48.534;9.062;2023-12-20T05:30:58;0.50;;;0.50;;
76610;SDS011;65503;48.534;9.062;2023-12-20T05:33:24;1.42;;;0.35;;
76610;SDS011;65503;48.534;9.062;2023-12-20T05:35:51;0.40;;;0.40;;
76610;SDS011;65503;48.534;9.062;2023-12-20T05:38:17;1.00;;;0.60;;
76610;SDS011;65503;48.534;9.062;2023-12-20T05:40:44;1.65;;;0.60;;
76610;SDS011;65503;48.534;9.062;2023-12-20T05:43:10;1.05;;;0.70;;
76610;SDS011;65503;48.534;9.062;2023-12-20T05:45:37;0.80;;;0.70;;
76610;SDS011;65503;48.534;9.062;2023-12-20T05:48:03;1.02;;;0.60;;
76610;SDS011;65503;48.534;9.062;2023-12-20T05:50:30;1.65;;;0.95;;
76610;SDS011;65503;48.534;9.062;2023-12-20T05:52:56;0.85;;;0.70;;
76610;SDS011;65503;48.534;9.062;2023-12-20T05:55:23;0.85;;;0.60;;
76610;SDS011;65503;48.534;9.062;2023-12-20T05:57:50;1.42;;;0.70;;
76610;SDS011;65503;48.534;9.062;2023-12-20T06:00:16;0.90;;;0.60;;
76610;SDS011;65503;48.534;9.062;2023-12-20T06:02:43;1.23;;;0.50;;
76610;SDS011;65503;48.534;9.062;2023-12-20T06:05:10;0.77;;;0.50;;
76610;SDS011;65503;48.534;9.062;2023-12-20T06:07:36;1.27;;;0.63;;
76610;SDS011;65503;48.534;9.062;2023-12-20T06:10:03;1.02;;;0.80;;
76610;SDS011;65503;48.534;9.062;2023-12-20T06:12:30;3.38;;;0.63;;
76610;SDS011;65503;48.534;9.062;2023-12-20T06:14:58;0.88;;;0.80;;
76610;SDS011;65503;48.534;9.062;2023-12-20T06:17:24;0.70;;;0.60;;
76610;SDS011;65503;48.534;9.062;2023-12-20T06:19:51;1.08;;;0.68;;
76610;SDS011;65503;48.534;9.062;2023-12-20T06:22:17;0.88;;;0.60;;
76610;SDS011;65503;48.534;9.062;2023-12-20T06:24:44;0.77;;;0.70;;
76610;SDS011;65503;48.534;9.062;2023-12-20T06:27:10;0.70;;;0.70;;
76610;SDS011;65503;48.534;9.062;2023-12-20T06:29:38;0.85;;;0.70;;
76610;SDS011;65503;48.534;9.062;2023-12-20T06:32:04;1.42;;;0.50;;
76610;SDS011;65503;48.534;9.062;2023-12-20T06:34:31;0.85;;;0.52;;
76610;SDS011;65503;48.534;9.062;2023-12-20T06:36:57;0.70;;;0.70;;
76610;SDS011;65503;48.534;9.062;2023-12-20T06:39:24;1.27;;;0.80;;
76610;SDS011;65503;48.534;9.062;2023-12-20T06:41:50;1.35;;;0.80;;
76610;SDS011;65503;48.534;9.062;2023-12-20T06:44:17;1.02;;;0.70;;
76610;SDS011;65503;48.534;9.062;2023-12-20T06:46:44;0.98;;;0.65;;
76610;SDS011;65503;48.534;9.062;2023-12-20T06:49:10;1.08;;;0.70;;
76610;SDS011;65503;48.534;9.062;2023-12-20T06:51:37;1.45;;;0.60;;
76610;SDS011;65503;48.534;9.062;2023-12-20T06:54:03;0.63;;;0.60;;
76610;SDS011;65503;48.534;9.062;2023-12-20T06:56:30;0.68;;;0.63;;
76610;SDS011;65503;48.534;9.062;2023-12-20T06:58:57;1.15;;;0.55;;
76610;SDS011;65503;48.534;9.062;2023-12-20T07:01:23;3.20;;;0.70;;
76610;SDS011;65503;48.534;9.062;2023-12-20T07:03:50;1.50;;;0.90;;
76610;SDS011;65503;48.534;9.062;2023-12-20T07:06:16;1.20;;;0.70;;
76610;SDS011;65503;48.534;9.062;2023-12-20T07:08:43;1.02;;;0.70;;
76610;SDS011;65503;48.534;9.062;2023-12-20T07:11:09;1.50;;;0.93;;
76610;SDS011;65503;48.534;9.062;2023-12-20T07:13:36;1.63;;;1.00;;
76610;SDS011;65503;48.534;9.062;2023-12-20T07:16:02;1.40;;;0.85;;
76610;SDS011;65503;48.534;9.062;2023-12-20T07:18:29;1.10;;;0.68;;
76610;SDS011;65503;48.534;9.062;2023-12-20T07:20:56;1.13;;;0.73;;
76610;SDS011;65503;48.534;9.062;2023-12-20T07:23:22;0.75;;;0.60;;
76610;SDS011;65503;48.534;9.062;2023-12-20T07:25:49;1.75;;;0.80;;
76610;SDS011;65503;48.534;9.062;2023-12-20T07:28:15;1.23;;;0.80;;
76610;SDS011;65503;48.534;9.062;2023-12-20T07:30:42;1.52;;;0.90;;
76610;SDS011;65503;48.534;9.062;2023-12-20T07:33:08;1.67;;;0.70;;
76610;SDS011;65503;48.534;9.062;2023-12-20T07:35:36;2.35;;;0.90;;
76610;SDS011;65503;48.534;9.062;2023-12-20T07:38:02;3.03;;;1.00;;
76610;SDS011;65503;48.534;9.062;2023-12-20T07:40:29;1.42;;;0.90;;
76610;SDS011;65503;48.534;9.062;2023-12-20T07:42:55;1.98;;;0.90;;
76610;SDS011;65503;48.534;9.062;2023-12-20T07:45:22;1.63;;;1.00;;
76610;SDS011;65503;48.534;9.062;2023-12-20T07:47:48;1.65;;;1.02;;
76610;SDS011;65503;48.534;9.062;2023-12-20T07:50:16;1.48;;;0.82;;
76610;SDS011;65503;48.534;9.062;2023-12-20T07:52:42;3.45;;;1.00;;
76610;SDS011;65503;48.534;9.062;2023-12-20T07:55:09;1.60;;;0.90;;
76610;SDS011;65503;48.534;9.062;2023-12-20T07:57:35;2.35;;;0.98;;
76610;SDS011;65503;48.534;9.062;2023-12-20T08:00:02;1.50;;;0.90;;
76610;SDS011;65503;48.534;9.062;2023-12-20T08:02:30;1.45;;;0.85;;
76610;SDS011;65503;48.534;9.062;2023-12-20T08:04:56;3.47;;;0.93;;
76610;SDS011;65503;48.534;9.062;2023-12-20T08:07:23;1.17;;;0.82;;
76610;SDS011;65503;48.534;9.062;2023-12-20T08:09:50;3.95;;;1.92;;
76610;SDS011;65503;48.534;9.062;2023-12-20T08:12:18;4.03;;;2.13;;
76610;SDS011;65503;48.534;9.062;2023-12-20T08:14:44;3.10;;;1.35;;
76610;SDS011;65503;48.534;9.062;2023-12-20T08:17:10;4.35;;;2.10;;
76610;SDS011;65503;48.534;9.062;2023-12-20T08:19:38;2.85;;;1.60;;
76610;SDS011;65503;48.534;9.062;2023-12-20T08:22:05;2.90;;;1.42;;
76610;SDS011;65503;48.534;9.062;2023-12-20T08:24:31;1.83;;;1.17;;
76610;SDS011;65503;48.534;9.062;2023-12-20T08:26:58;4.82;;;1.00;;
76610;SDS011;65503;48.534;9.062;2023-12-20T08:29:24;2.92;;;1.10;;
76610;SDS011;65503;48.534;9.062;2023-12-20T08:31:54;2.40;;;1.27;;
76610;SDS011;65503;48.534;9.062;2023-12-20T08:34:22;2.45;;;1.10;;
76610;SDS011;65503;48.534;9.062;2023-12-20T08:39:17;1.33;;;0.90;;
76610;SDS011;65503;48.534;9.062;2023-12-20T08:41:44;1.25;;;0.70;;
76610;SDS011;65503;48.534;9.062;2023-12-20T08:44:10;1.20;;;0.77;;
76610;SDS011;65503;48.534;9.062;2023-12-20T08:46:36;3.10;;;0.88;;
76610;SDS011;65503;48.534;9.062;2023-12-20T08:49:03;6.00;;;1.10;;
76610;SDS011;65503;48.534;9.062;2023-12-20T08:51:30;2.88;;;0.98;;
76610;SDS011;65503;48.534;9.062;2023-12-20T08:53:56;1.27;;;0.82;;
76610;SDS011;65503;48.534;9.062;2023-12-20T08:56:23;1.02;;;0.88;;
76610;SDS011;65503;48.534;9.062;2023-12-20T08:58:49;2.88;;;0.98;;
76610;SDS011;65503;48.534;9.062;2023-12-20T09:01:16;1.95;;;1.10;;
76610;SDS011;65503;48.534;9.062;2023-12-20T09:03:42;2.35;;;1.23;;
76610;SDS011;65503;48.534;9.062;2023-12-20T09:06:10;2.08;;;1.20;;
76610;SDS011;65503;48.534;9.062;2023-12-20T09:08:36;3.58;;;1.27;;
76610;SDS011;65503;48.534;9.062;2023-12-20T09:11:03;3.50;;;1.42;;
76610;SDS011;65503;48.534;9.062;2023-12-20T09:13:29;3.40;;;1.70;;
76610;SDS011;65503;48.534;9.062;2023-12-20T09:15:58;5.03;;;2.17;;
76610;SDS011;65503;48.534;9.062;2023-12-20T09:18:25;3.50;;;1.88;;
76610;SDS011;65503;48.534;9.062;2023-12-20T09:20:51;2.75;;;1.58;;
76610;SDS011;65503;48.534;9.062;2023-12-20T09:23:18;5.70;;;1.80;;
76610;SDS011;65503;48.534;9.062;2023-12-20T09:25:44;4.20;;;1.50;;
76610;SDS011;65503;48.534;9.062;2023-12-20T09:28:11;3.97;;;1.52;;
76610;SDS011;65503;48.534;9.062;2023-12-20T09:30:38;3.90;;;1.58;;
76610;SDS011;65503;48.534;9.062;2023-12-20T09:33:06;3.28;;;1.40;;
76610;SDS011;65503;48.534;9.062;2023-12-20T09:35:33;4.60;;;1.40;;
76610;SDS011;65503;48.534;9.062;2023-12-20T09:38:00;5.25;;;1.58;;
76610;SDS011;65503;48.534;9.062;2023-12-20T09:40:27;6.82;;;1.38;;
76610;SDS011;65503;48.534;9.062;2023-12-20T09:42:56;6.50;;;1.50;;
76610;SDS011;65503;48.534;9.062;2023-12-20T09:45:24;2.90;;;1.13;;
76610;SDS011;65503;48.534;9.062;2023-12-20T09:47:52;5.80;;;1.77;;
76610;SDS011;65503;48.534;9.062;2023-12-20T09:50:19;5.28;;;1.70;;
76610;SDS011;65503;48.534;9.062;2023-12-20T09:52:51;5.43;;;1.40;;
76610;SDS011;65503;48.534;9.062;2023-12-20T09:55:19;6.22;;;1.50;;
76610;SDS011;65503;48.534;9.062;2023-12-20T09:57:47;3.50;;;1.05;;
76610;SDS011;65503;48.534;9.062;2023-12-20T10:02:55;4.63;;;1.20;;
76610;SDS011;65503;48.534;9.062;2023-12-20T10:05:30;2.33;;;1.10;;
76610;SDS011;65503;48.534;9.062;2023-12-20T10:07:58;7.50;;;1.95;;
76610;SDS011;65503;48.534;9.062;2023-12-20T10:10:26;5.03;;;1.33;;
76610;SDS011;65503;48.534;9.062;2023-12-20T10:13:10;4.93;;;1.55;;
76610;SDS011;65503;48.534;9.062;2023-12-20T10:15:38;2.65;;;1.10;;
76610;SDS011;65503;48.534;9.062;2023-12-20T10:18:05;3.95;;;1.25;;
76610;SDS011;65503;48.534;9.062;2023-12-20T10:20:32;2.72;;;1.40;;
76610;SDS011;65503;48.534;9.062;2023-12-20T10:22:59;3.15;;;1.20;;
76610;SDS011;65503;48.534;9.062;2023-12-20T10:30:40;4.22;;;1.20;;
76610;SDS011;65503;48.534;9.062;2023-12-20T10:33:07;1.75;;;1.10;;
76610;SDS011;65503;48.534;9.062;2023-12-20T10:35:34;5.32;;;1.20;;
76610;SDS011;65503;48.534;9.062;2023-12-20T10:38:05;2.53;;;1.23;;
76610;SDS011;65503;48.534;9.062;2023-12-20T10:40:36;3.75;;;1.13;;
76610;SDS011;65503;48.534;9.062;2023-12-20T10:43:04;6.22;;;1.10;;
76610;SDS011;65503;48.534;9.062;2023-12-20T10:45:31;6.82;;;1.50;;
76610;SDS011;65503;48.534;9.062;2023-12-20T10:47:58;4.70;;;1.20;;
76610;SDS011;65503;48.534;9.062;2023-12-20T10:50:26;5.97;;;1.50;;
76610;SDS011;65503;48.534;9.062;2023-12-20T10:52:54;3.67;;;1.10;;
76610;SDS011;65503;48.534;9.062;2023-12-20T10:55:22;2.78;;;0.95;;
76610;SDS011;65503;48.534;9.062;2023-12-20T10:58:00;6.30;;;1.23;;
76610;SDS011;65503;48.534;9.062;2023-12-20T11:00:28;4.28;;;1.38;;
76610;SDS011;65503;48.534;9.062;2023-12-20T11:02:56;7.07;;;1.30;;
76610;SDS011;65503;48.534;9.062;2023-12-20T11:11:04;4.32;;;1.33;;
76610;SDS011;65503;48.534;9.062;2023-12-20T11:13:39;4.88;;;1.20;;
76610;SDS011;65503;48.534;9.062;2023-12-20T11:16:10;4.00;;;1.42;;
76610;SDS011;65503;48.534;9.062;2023-12-20T11:18:37;5.47;;;1.20;;
76610;SDS011;65503;48.534;9.062;2023-12-20T11:21:07;4.40;;;1.13;;
76610;SDS011;65503;48.534;9.062;2023-12-20T11:23:33;2.97;;;1.10;;
76610;SDS011;65503;48.534;9.062;2023-12-20T11:26:01;4.28;;;1.15;;
76610;SDS011;65503;48.534;9.062;2023-12-20T11:28:28;3.53;;;1.42;;
76610;SDS011;65503;48.534;9.062;2023-12-20T11:31:00;2.30;;;1.05;;
76610;SDS011;65503;48.534;9.062;2023-12-20T11:33:32;4.40;;;1.40;;
76610;SDS011;65503;48.534;9.062;2023-12-20T11:36:03;4.05;;;1.30;;
76610;SDS011;65503;48.534;9.062;2023-12-20T11:38:36;5.18;;;1.30;;
76610;SDS011;65503;48.534;9.062;2023-12-20T11:41:06;1.50;;;0.95;;
76610;SDS011;65503;48.534;9.062;2023-12-20T11:43:36;2.47;;;1.08;;
76610;SDS011;65503;48.534;9.062;2023-12-20T11:46:03;7.13;;;1.25;;
76610;SDS011;65503;48.534;9.062;2023-12-20T11:48:37;8.20;;;1.30;;
76610;SDS011;65503;48.534;9.062;2023-12-20T11:51:11;3.22;;;1.08;;
76610;SDS011;65503;48.534;9.062;2023-12-20T11:53:38;5.85;;;1.77;;
76610;SDS011;65503;48.534;9.062;2023-12-20T11:56:06;3.65;;;1.02;;
76610;SDS011;65503;48.534;9.062;2023-12-20T11:58:33;3.08;;;1.05;;
76610;SDS011;65503;48.534;9.062;2023-12-20T12:01:00;5.10;;;1.33;;
76610;SDS011;65503;48.534;9.062;2023-12-20T12:03:28;3.25;;;1.08;;
76610;SDS011;65503;48.534;9.062;2023-12-20T12:05:55;5.05;;;1.90;;
76610;SDS011;65503;48.534;9.062;2023-12-20T12:08:22;2.42;;;0.95;;
76610;SDS011;65503;48.534;9.062;2023-12-20T12:10:48;3.63;;;1.13;;
76610;SDS011;65503;48.534;9.062;2023-12-20T12:13:15;3.30;;;1.17;;
76610;SDS011;65503;48.534;9.062;2023-12-20T12:15:42;3.42;;;1.17;;
76610;SDS011;65503;48.534;9.062;2023-12-20T12:18:08;3.00;;;1.13;;
76610;SDS011;65503;48.534;9.062;2023-12-20T12:23:04;5.80;;;1.20;;
76610;SDS011;65503;48.534;9.062;2023-12-20T12:25:34;4.10;;;1.30;;
76610;SDS011;65503;48.534;9.062;2023-12-20T12:28:06;4.75;;;1.33;;
76610;SDS011;65503;48.534;9.062;2023-12-20T12:30:33;3.63;;;1.23;;
76610;SDS011;65503;48.534;9.062;2023-12-20T12:33:04;6.30;;;1.30;;
76610;SDS011;65503;48.534;9.062;2023-12-20T12:35:31;6.68;;;1.33;;
76610;SDS011;65503;48.534;9.062;2023-12-20T12:37:58;5.65;;;1.15;;
76610;SDS011;65503;48.534;9.062;2023-12-20T12:40:25;3.38;;;1.23;;
76610;SDS011;65503;48.534;9.062;2023-12-20T12:42:52;4.07;;;1.50;;
76610;SDS011;65503;48.534;9.062;2023-12-20T12:45:18;14.07;;;1.88;;
76610;SDS011;65503;48.534;9.062;2023-12-20T12:47:45;5.75;;;1.50;;
76610;SDS011;65503;48.534;9.062;2023-12-20T12:50:12;8.35;;;1.52;;
76610;SDS011;65503;48.534;9.062;2023-12-20T12:52:39;6.43;;;1.52;;
76610;SDS011;65503;48.534;9.062;2023-12-20T12:55:05;7.93;;;1.40;;
76610;SDS011;65503;48.534;9.062;2023-12-20T12:57:32;3.70;;;1.20;;
76610;SDS011;65503;48.534;9.062;2023-12-20T12:59:59;3.00;;;1.05;;
76610;SDS011;65503;48.534;9.062;2023-12-20T13:02:26;6.72;;;1.55;;
76610;SDS011;65503;48.534;9.062;2023-12-20T13:04:52;3.75;;;1.40;;
76610;SDS011;65503;48.534;9.062;2023-12-20T13:07:19;8.10;;;1.30;;
76610;SDS011;65503;48.534;9.062;2023-12-20T13:09:46;6.70;;;1.45;;
76610;SDS011;65503;48.534;9.062;2023-12-20T13:12:12;7.28;;;1.45;;
76610;SDS011;65503;48.534;9.062;2023-12-20T13:14:39;7.65;;;1.42;;
76610;SDS011;65503;48.534;9.062;2023-12-20T13:17:06;5.47;;;1.27;;
76610;SDS011;65503;48.534;9.062;2023-12-20T13:19:33;4.18;;;1.30;;
76610;SDS011;65503;48.534;9.062;2023-12-20T13:21:59;9.13;;;1.38;;
76610;SDS011;65503;48.534;9.062;2023-12-20T13:24:26;9.07;;;1.30;;
76610;SDS011;65503;48.534;9.062;2023-12-20T13:26:52;3.75;;;1.27;;
76610;SDS011;65503;48.534;9.062;2023-12-20T13:29:19;8.20;;;1.10;;
76610;SDS011;65503;48.534;9.062;2023-12-20T13:31:45;4.80;;;1.25;;
76610;SDS011;65503;48.534;9.062;2023-12-20T13:34:12;5.80;;;1.38;;
76610;SDS011;65503;48.534;9.062;2023-12-20T13:36:39;6.72;;;1.10;;
76610;SDS011;65503;48.534;9.062;2023-12-20T13:39:06;5.05;;;1.10;;
76610;SDS011;65503;48.534;9.062;2023-12-20T13:41:33;6.82;;;1.55;;
76610;SDS011;65503;48.534;9.062;2023-12-20T13:43:59;5.97;;;1.23;;
76610;SDS011;65503;48.534;9.062;2023-12-20T13:46:27;5.28;;;1.52;;
76610;SDS011;65503;48.534;9.062;2023-12-20T13:48:54;3.97;;;1.02;;
76610;SDS011;65503;48.534;9.062;2023-12-20T13:51:21;7.65;;;1.70;;
76610;SDS011;65503;48.534;9.062;2023-12-20T13:53:47;5.57;;;1.10;;
76610;SDS011;65503;48.534;9.062;2023-12-20T13:56:15;5.00;;;1.38;;
76610;SDS011;65503;48.534;9.062;2023-12-20T13:58:41;6.72;;;1.55;;
76610;SDS011;65503;48.534;9.062;2023-12-20T14:01:09;6.32;;;1.33;;
76610;SDS011;65503;48.534;9.062;2023-12-20T14:03:36;5.38;;;1.30;;
76610;SDS011;65503;48.534;9.062;2023-12-20T14:06:03;6.47;;;1.40;;
76610;SDS011;65503;48.534;9.062;2023-12-20T14:08:30;7.78;;;1.35;;
76610;SDS011;65503;48.534;9.062;2023-12-20T14:10:56;5.30;;;1.35;;
76610;SDS011;65503;48.534;9.062;2023-12-20T14:13:23;3.60;;;1.13;;
76610;SDS011;65503;48.534;9.062;2023-12-20T14:15:49;6.93;;;1.20;;
76610;SDS011;65503;48.534;9.062;2023-12-20T14:18:16;6.63;;;1.42;;
76610;SDS011;65503;48.534;9.062;2023-12-20T14:20:43;5.20;;;1.20;;
76610;SDS011;65503;48.534;9.062;2023-12-20T14:23:10;3.95;;;1.20;;
76610;SDS011;65503;48.534;9.062;2023-12-20T14:25:37;4.10;;;0.88;;
76610;SDS011;65503;48.534;9.062;2023-12-20T14:28:16;4.82;;;1.17;;
76610;SDS011;65503;48.534;9.062;2023-12-20T14:30:43;3.13;;;1.10;;
76610;SDS011;65503;48.534;9.062;2023-12-20T14:33:10;5.90;;;1.05;;
76610;SDS011;65503;48.534;9.062;2023-12-20T14:35:37;2.80;;;1.20;;
76610;SDS011;65503;48.534;9.062;2023-12-20T14:38:03;5.43;;;1.35;;
76610;SDS011;65503;48.534;9.062;2023-12-20T14:40:30;6.35;;;1.25;;
76610;SDS011;65503;48.534;9.062;2023-12-20T14:42:56;7.68;;;2.13;;
76610;SDS011;65503;48.534;9.062;2023-12-20T14:45:23;5.82;;;1.60;;
76610;SDS011;65503;48.534;9.062;2023-12-20T14:47:49;4.90;;;1.02;;
76610;SDS011;65503;48.534;9.062;2023-12-20T14:50:16;3.65;;;1.60;;
76610;SDS011;65503;48.534;9.062;2023-12-20T14:52:46;4.75;;;1.17;;
76610;SDS011;65503;48.534;9.062;2023-12-20T14:55:12;5.32;;;1.30;;
76610;SDS011;65503;48.534;9.062;2023-12-20T14:57:39;8.07;;;1.55;;
76610;SDS011;65503;48.534;9.062;2023-12-20T15:00:06;6.43;;;1.63;;
76610;SDS011;65503;48.534;9.062;2023-12-20T15:02:33;6.68;;;1.63;;
76610;SDS011;65503;48.534;9.062;2023-12-20T15:05:00;5.57;;;1.45;;
76610;SDS011;65503;48.534;9.062;2023-12-20T15:07:27;2.17;;;1.00;;
76610;SDS011;65503;48.534;9.062;2023-12-20T15:09:54;7.03;;;1.60;;